PrinceSS Juana K — HPFV — position and weather

sailwx.info

Track history (hours):
 
Tides and Currents Weather Stations Pressure Air Temp Water Temp Dewpoint Dewpoint Depression Visibility Wind Speed Wind Dir Waves Ship Positions

PrinceSS Juana K

Last reported at 2015-Apr-01 12:13 UTC. Time now 2015-Sep-02 02:28 UTC.
Position N 40°43' E 029°08'.
Warning: this ship's position is months out of date.

Length 145 m; draft 6 m.

Type: Cargo ship. MMSI: 352982000.

Date/timePositionNaut miles runAvg speedWind from/ knotsBaromVisibWave heightAir tempDewpointWater temp
2015-Apr-01 12:13N 40°43' E 029°08'4 1.5
2015-Apr-01 09:12N 40°45' E 029°03'2 2.8
2015-Apr-01 08:33N 40°47' E 029°02'3 3.5
2015-Apr-01 07:33N 40°50' E 029°03'2 2.0
2015-Apr-01 06:33N 40°50' E 029°01'2 1.9
2015-Apr-01 05:33N 40°49' E 028°58'5 4.8
2015-Apr-01 04:28N 40°53' E 028°55'5 5.2
2015-Apr-01 03:33N 40°58' E 028°54'0 0.2
2015-Apr-01 02:27N 40°58' E 028°54'0 0.0
2015-Mar-31 23:18N 40°58' E 028°54'0 0.0
2015-Mar-31 22:06N 40°58' E 028°54'0 0.0
2015-Mar-31 21:30N 40°58' E 028°54'0 0.0
2015-Mar-31 20:24N 40°58' E 028°54'0 0.0
2015-Mar-31 19:29N 40°58' E 028°54'0 0.1
2015-Mar-31 18:29N 40°58' E 028°54'0 0.0
2015-Mar-31 14:05N 40°58' E 028°54'0 0.1
2015-Mar-31 13:31N 40°58' E 028°54'0 0.0
2015-Mar-31 07:06N 40°58' E 028°54'0 0.0
2015-Mar-31 06:30N 40°58' E 028°54'0 0.0
2015-Mar-31 02:10N 40°58' E 028°54'0 0.0
2015-Mar-30 23:32N 40°58' E 028°54'0 0.0
2015-Mar-30 22:32N 40°58' E 028°54'0 0.0
2015-Mar-30 20:32N 40°58' E 028°54'0 0.0
2015-Mar-30 19:26N 40°58' E 028°54'0 0.0
2015-Mar-30 18:33N 40°58' E 028°54'0 0.0
2015-Mar-30 16:30N 40°58' E 028°54'0 0.0
2015-Mar-30 15:32N 40°58' E 028°54'0 0.0
2015-Mar-30 14:32N 40°58' E 028°54'0 0.0
2015-Mar-30 13:26N 40°58' E 028°54'0 0.0
2015-Mar-30 12:31N 40°58' E 028°54'0 0.0
2015-Mar-30 06:07N 40°58' E 028°54'0 0.1
2015-Mar-30 05:19N 40°58' E 028°54'1 1.2
2015-Mar-30 04:30N 40°57' E 028°55'2 1.6
2015-Mar-30 03:33N 40°57' E 028°57'5 4.6
2015-Mar-30 02:31N 40°53' E 028°55'7 6.9
2015-Mar-30 01:32N 40°51' E 028°46'9 9.0
2015-Mar-30 00:32N 40°48' E 028°35'258 7.8
2015-Mar-28 15:15N 37°33' E 024°57'6 8.8
2015-Mar-28 14:33N 37°27' E 024°60'4 1.0
2015-Mar-28 10:25N 37°23' E 025°02'9 9.9
2015-Mar-28 09:33N 37°18' E 024°54'  
2015-Mar-23 21:33N 36°40' E 014°32'9 8.8
2015-Mar-23 20:34N 36°42' E 014°21'9 8.9
2015-Mar-23 19:34N 36°44' E 014°11'9 9.4
2015-Mar-23 18:34N 36°45' E 013°59'10 9.8
2015-Mar-23 17:34N 36°48' E 013°47'10 9.8
2015-Mar-23 16:33N 36°50' E 013°35'11 9.5
2015-Mar-23 15:26N 36°53' E 013°22'  
Track history (hours):
 
Tides and Currents Weather Stations Pressure Air Temp Water Temp Dewpoint Dewpoint Depression Visibility Wind Speed Wind Dir Waves Ship Positions

PrinceSS Juana K

Last reported at 2015-Apr-01 12:13 UTC. Time now 2015-Sep-02 02:28 UTC.
Position N 40°43' E 029°08'.
Warning: this ship's position is months out of date.

Length 145 m; draft 6 m.

Type: Cargo ship. MMSI: 352982000.

Date/timePositionNaut miles runAvg speedWind from/ knotsBaromVisibWave heightAir tempDewpointWater temp
2015-Apr-01 12:13N 40°43' E 029°08'4 1.5
2015-Apr-01 09:12N 40°45' E 029°03'2 2.8
2015-Apr-01 08:33N 40°47' E 029°02'3 3.5
2015-Apr-01 07:33N 40°50' E 029°03'2 2.0
2015-Apr-01 06:33N 40°50' E 029°01'2 1.9
2015-Apr-01 05:33N 40°49' E 028°58'5 4.8
2015-Apr-01 04:28N 40°53' E 028°55'5 5.2
2015-Apr-01 03:33N 40°58' E 028°54'0 0.2
2015-Apr-01 02:27N 40°58' E 028°54'0 0.0
2015-Mar-31 23:18N 40°58' E 028°54'0 0.0
2015-Mar-31 22:06N 40°58' E 028°54'0 0.0
2015-Mar-31 21:30N 40°58' E 028°54'0 0.0
2015-Mar-31 20:24N 40°58' E 028°54'0 0.0
2015-Mar-31 19:29N 40°58' E 028°54'0 0.1
2015-Mar-31 18:29N 40°58' E 028°54'0 0.0
2015-Mar-31 14:05N 40°58' E 028°54'0 0.1
2015-Mar-31 13:31N 40°58' E 028°54'0 0.0
2015-Mar-31 07:06N 40°58' E 028°54'0 0.0
2015-Mar-31 06:30N 40°58' E 028°54'0 0.0
2015-Mar-31 02:10N 40°58' E 028°54'0 0.0
2015-Mar-30 23:32N 40°58' E 028°54'0 0.0
2015-Mar-30 22:32N 40°58' E 028°54'0 0.0
2015-Mar-30 20:32N 40°58' E 028°54'0 0.0
2015-Mar-30 19:26N 40°58' E 028°54'0 0.0
2015-Mar-30 18:33N 40°58' E 028°54'0 0.0
2015-Mar-30 16:30N 40°58' E 028°54'0 0.0
2015-Mar-30 15:32N 40°58' E 028°54'0 0.0
2015-Mar-30 14:32N 40°58' E 028°54'0 0.0
2015-Mar-30 13:26N 40°58' E 028°54'0 0.0
2015-Mar-30 12:31N 40°58' E 028°54'0 0.0
2015-Mar-30 06:07N 40°58' E 028°54'0 0.1
2015-Mar-30 05:19N 40°58' E 028°54'1 1.2
2015-Mar-30 04:30N 40°57' E 028°55'2 1.6
2015-Mar-30 03:33N 40°57' E 028°57'5 4.6
2015-Mar-30 02:31N 40°53' E 028°55'7 6.9
2015-Mar-30 01:32N 40°51' E 028°46'9 9.0
2015-Mar-30 00:32N 40°48' E 028°35'258 7.8
2015-Mar-28 15:15N 37°33' E 024°57'6 8.8
2015-Mar-28 14:33N 37°27' E 024°60'4 1.0
2015-Mar-28 10:25N 37°23' E 025°02'9 9.9
2015-Mar-28 09:33N 37°18' E 024°54'  
2015-Mar-23 21:33N 36°40' E 014°32'9 8.8
2015-Mar-23 20:34N 36°42' E 014°21'9 8.9
2015-Mar-23 19:34N 36°44' E 014°11'9 9.4
2015-Mar-23 18:34N 36°45' E 013°59'10 9.8
2015-Mar-23 17:34N 36°48' E 013°47'10 9.8
2015-Mar-23 16:33N 36°50' E 013°35'11 9.5
2015-Mar-23 15:26N 36°53' E 013°22'  

Dump ship's entire track history